createdAt,value
2024-05-09T00:00:35.235Z,100754.78
2024-05-09T00:01:10.103Z,100756.56
2024-05-09T00:01:40.943Z,100754.97
2024-05-09T00:02:11.770Z,100756.84
2024-05-09T00:02:42.511Z,100748.94
2024-05-09T00:03:13.410Z,100759.28
2024-05-09T00:03:45.718Z,100750.53
2024-05-09T00:04:16.504Z,100750.47
2024-05-09T00:04:47.304Z,100753.19
2024-05-09T00:05:18.193Z,100750.66
2024-05-09T00:05:49.032Z,100753.19
2024-05-09T00:06:19.803Z,100752.34
2024-05-09T00:06:50.514Z,100742.56
2024-05-09T00:07:21.239Z,100746.88
2024-05-09T00:07:52.064Z,100748.56
2024-05-09T00:08:23.007Z,100748.56
2024-05-09T00:08:53.841Z,100742.34
2024-05-09T00:09:24.622Z,100751.28
2024-05-09T00:09:55.362Z,100750.66
2024-05-09T00:10:35.044Z,100749.91
2024-05-09T00:11:08.496Z,100752.44
2024-05-09T00:11:39.364Z,100743.69
2024-05-09T00:12:10.297Z,100744.34
2024-05-09T00:12:41.102Z,100741.81
2024-05-09T00:13:11.826Z,100745.19
2024-05-09T00:13:42.616Z,100746.88
2024-05-09T00:14:13.398Z,100747.00
2024-05-09T00:14:44.148Z,100747.91
2024-05-09T00:15:14.901Z,100747.19
2024-05-09T00:15:45.621Z,100749.81
2024-05-09T00:16:16.349Z,100749.69
2024-05-09T00:16:48.576Z,100752.97
2024-05-09T00:17:19.444Z,100748.75
2024-05-09T00:17:53.219Z,100747.00
2024-05-09T00:18:24.247Z,100754.97
2024-05-09T00:18:55.036Z,100742.75
2024-05-09T00:19:26.471Z,100742.66
2024-05-09T00:19:57.246Z,100739.94
2024-05-09T00:20:36.219Z,100743.50
2024-05-09T00:21:10.339Z,100745.19
2024-05-09T00:21:43.716Z,100747.06
2024-05-09T00:22:14.495Z,100747.84
2024-05-09T00:22:45.293Z,100743.28
2024-05-09T00:23:16.283Z,100745.19
2024-05-09T00:23:47.109Z,100748.66
2024-05-09T00:24:17.843Z,100747.06
2024-05-09T00:24:48.567Z,100748.13
2024-05-09T00:25:19.310Z,100754.88
2024-05-09T00:25:50.147Z,100749.63
2024-05-09T00:26:21.050Z,100750.53
2024-05-09T00:26:51.807Z,100749.81
2024-05-09T00:27:22.565Z,100748.94
2024-05-09T00:27:53.276Z,100750.66
2024-05-09T00:28:24.732Z,100744.44
2024-05-09T00:28:55.578Z,100746.25
2024-05-09T00:29:26.394Z,100743.59
2024-05-09T00:29:57.203Z,100744.34
2024-05-09T00:30:33.949Z,100742.56
2024-05-09T00:31:07.043Z,100744.34
2024-05-09T00:31:37.771Z,100743.69
2024-05-09T00:32:08.620Z,100748.94
2024-05-09T00:32:39.583Z,100744.66
2024-05-09T00:33:11.492Z,100742.84
2024-05-09T00:33:42.883Z,100738.44
2024-05-09T00:34:13.951Z,100734.13
2024-05-09T00:34:45.156Z,100732.31
2024-05-09T00:35:15.987Z,100731.59
2024-05-09T00:35:46.821Z,100740.53
2024-05-09T00:36:17.553Z,100737.69
2024-05-09T00:36:48.535Z,100735.06
2024-05-09T00:37:19.465Z,100731.59
2024-05-09T00:37:50.230Z,100734.22
2024-05-09T00:38:21.194Z,100727.28
2024-05-09T00:38:52.021Z,100725.38
2024-05-09T00:39:22.746Z,100730.66
2024-05-09T00:39:53.462Z,100728.13
2024-05-09T00:40:34.755Z,100728.13
2024-05-09T00:41:09.616Z,100728.13
2024-05-09T00:41:40.474Z,100726.22
2024-05-09T00:42:11.220Z,100740.13
2024-05-09T00:42:41.933Z,100728.78
2024-05-09T00:43:14.100Z,100733.16
2024-05-09T00:43:45.733Z,100725.59
2024-05-09T00:44:16.510Z,100723.06
2024-05-09T00:44:47.309Z,100733.41
2024-05-09T00:45:18.026Z,100735.78
2024-05-09T00:45:48.762Z,100740.22
2024-05-09T00:46:19.912Z,100736.94
2024-05-09T00:46:53.551Z,100743.16
2024-05-09T00:47:24.771Z,100746.56
2024-05-09T00:47:58.615Z,100738.75
2024-05-09T00:48:30.103Z,100738.84
2024-05-09T00:49:01.168Z,100745.59
2024-05-09T00:49:32.736Z,100740.53
2024-05-09T00:50:05.537Z,100744.00
2024-05-09T00:50:41.399Z,100737.91
2024-05-09T00:51:12.871Z,100736.94
2024-05-09T00:51:44.616Z,100747.47
2024-05-09T00:52:15.663Z,100745.78
2024-05-09T00:52:47.709Z,100744.00
2024-05-09T00:53:18.851Z,100741.38
2024-05-09T00:53:49.722Z,100743.16
2024-05-09T00:54:22.086Z,100741.38
2024-05-09T00:54:55.209Z,100743.91
2024-05-09T00:55:29.929Z,100745.19
2024-05-09T00:56:04.159Z,100737.59
2024-05-09T00:56:35.398Z,100742.88
2024-05-09T00:57:06.262Z,100741.00
2024-05-09T00:57:38.656Z,100738.44
2024-05-09T00:58:12.251Z,100737.41
2024-05-09T00:58:43.046Z,100738.97
2024-05-09T00:59:14.733Z,100745.06
2024-05-09T00:59:46.500Z,100741.00
2024-05-09T01:00:26.514Z,100742.75
2024-05-09T01:01:05.220Z,100736.56
2024-05-09T01:01:36.121Z,100734.88
2024-05-09T01:02:09.248Z,100744.34
2024-05-09T01:02:40.122Z,100740.75
2024-05-09T01:03:13.038Z,100737.28
2024-05-09T01:03:46.643Z,100734.56
2024-05-09T01:04:18.881Z,100739.81
2024-05-09T01:04:49.870Z,100733.47
2024-05-09T01:05:20.749Z,100739.59
2024-05-09T01:05:51.561Z,100734.13
2024-05-09T01:06:22.404Z,100734.22
2024-05-09T01:06:53.181Z,100738.66
2024-05-09T01:07:24.389Z,100739.50
2024-05-09T01:07:55.114Z,100729.94
2024-05-09T01:08:26.303Z,100733.41
2024-05-09T01:08:57.067Z,100734.22
2024-05-09T01:09:27.788Z,100737.59
2024-05-09T01:09:58.578Z,100737.59
2024-05-09T01:10:34.172Z,100731.50
2024-05-09T01:11:06.657Z,100737.69
2024-05-09T01:11:39.212Z,100740.53
2024-05-09T01:12:10.159Z,100740.53
2024-05-09T01:12:40.998Z,100733.47
2024-05-09T01:13:11.755Z,100740.34
2024-05-09T01:13:43.699Z,100744.00
2024-05-09T01:14:14.439Z,100736.03
2024-05-09T01:14:45.184Z,100732.56
2024-05-09T01:15:15.903Z,100735.06
2024-05-09T01:15:48.925Z,100743.81
2024-05-09T01:16:19.797Z,100735.06
2024-05-09T01:16:50.584Z,100739.69
2024-05-09T01:17:21.486Z,100742.31
2024-05-09T01:17:54.274Z,100733.09
2024-05-09T01:18:25.685Z,100729.59
2024-05-09T01:18:57.854Z,100737.50
2024-05-09T01:19:29.698Z,100738.38
2024-05-09T01:20:00.605Z,100730.47
2024-05-09T01:20:39.915Z,100731.31
2024-05-09T01:21:14.067Z,100732.59
2024-05-09T01:21:44.982Z,100737.97
2024-05-09T01:22:15.697Z,100733.66
2024-05-09T01:22:46.814Z,100730.50
2024-05-09T01:23:17.589Z,100737.53
2024-05-09T01:23:48.348Z,100738.16
2024-05-09T01:24:19.350Z,100737.97
2024-05-09T01:24:53.774Z,100743.41
2024-05-09T01:25:24.503Z,100744.47
2024-05-09T01:25:55.300Z,100739.22
2024-05-09T01:26:26.117Z,100727.13
2024-05-09T01:26:56.851Z,100741.13
2024-05-09T01:27:29.662Z,100735.09
2024-05-09T01:28:00.930Z,100743.97
2024-05-09T01:28:31.649Z,100741.22
2024-05-09T01:29:02.536Z,100735.03
2024-05-09T01:29:33.372Z,100735.03
2024-05-09T01:30:09.135Z,100729.66
2024-05-09T01:30:40.271Z,100742.69
2024-05-09T01:31:14.968Z,100739.34
2024-05-09T01:31:46.705Z,100735.94
2024-05-09T01:32:17.573Z,100741.97
2024-05-09T01:32:48.520Z,100744.47
2024-05-09T01:33:19.433Z,100728.69
2024-05-09T01:33:50.448Z,100734.81
2024-05-09T01:34:21.374Z,100741.84
2024-05-09T01:34:52.254Z,100731.34
2024-05-09T01:35:23.113Z,100733.00
2024-05-09T01:35:53.873Z,100729.53
2024-05-09T01:36:24.658Z,100743.53
2024-05-09T01:36:55.364Z,100735.63
2024-05-09T01:37:26.080Z,100729.66
2024-05-09T01:37:56.841Z,100735.09
2024-05-09T01:38:27.614Z,100731.44
2024-05-09T01:38:58.364Z,100738.50
2024-05-09T01:39:29.110Z,100723.66
2024-05-09T01:39:59.886Z,100727.75
2024-05-09T01:41:06.274Z,100733.97
2024-05-09T01:41:37.087Z,100726.78
2024-05-09T01:42:07.856Z,100726.91
2024-05-09T01:42:41.576Z,100727.75
2024-05-09T01:43:12.536Z,100728.59
2024-05-09T01:43:43.317Z,100728.47
2024-05-09T01:44:14.106Z,100725.84
2024-05-09T01:44:45.722Z,100729.44
2024-05-09T01:45:17.390Z,100725.00
2024-05-09T01:45:48.109Z,100730.38
2024-05-09T01:46:18.839Z,100731.34
2024-05-09T01:46:49.591Z,100722.72
2024-05-09T01:47:20.459Z,100729.66
2024-05-09T01:47:51.641Z,100737.53
2024-05-09T01:48:22.630Z,100727.03
2024-05-09T01:48:53.594Z,100731.34
2024-05-09T01:49:24.472Z,100733.00
2024-05-09T01:49:55.240Z,100733.72
2024-05-09T01:50:37.132Z,100732.16
2024-05-09T01:51:11.663Z,100733.00
2024-05-09T01:51:42.591Z,100733.72
2024-05-09T01:52:13.319Z,100737.31
2024-05-09T01:52:44.051Z,100739.84
2024-05-09T01:53:15.408Z,100735.41
2024-05-09T01:53:46.485Z,100731.94
2024-05-09T01:54:17.235Z,100733.72
2024-05-09T01:54:47.957Z,100734.56
2024-05-09T01:55:18.673Z,100740.59
2024-05-09T01:55:49.410Z,100740.66
2024-05-09T01:56:20.226Z,100739.94
2024-05-09T01:56:51.009Z,100744.38
2024-05-09T01:57:21.732Z,100733.00
2024-05-09T01:57:52.466Z,100740.91
2024-05-09T01:58:23.559Z,100737.19
2024-05-09T01:58:54.344Z,100738.16
2024-05-09T01:59:25.297Z,100740.78
2024-05-09T01:59:56.060Z,100735.63
2024-05-09T02:00:37.087Z,100746.88
2024-05-09T02:01:11.533Z,100738.03
2024-05-09T02:01:56.128Z,100737.13
2024-05-09T02:02:28.456Z,100739.75
2024-05-09T02:02:59.353Z,100740.66
2024-05-09T02:03:30.286Z,100740.66
2024-05-09T02:04:01.374Z,100746.88
2024-05-09T02:04:32.392Z,100739.00
2024-05-09T02:05:03.584Z,100747.72
2024-05-09T02:05:34.598Z,100744.25
2024-05-09T02:06:05.775Z,100738.78
2024-05-09T02:06:40.594Z,100741.63
2024-05-09T02:07:11.323Z,100746.88
2024-05-09T02:07:42.065Z,100746.88
2024-05-09T02:08:17.572Z,100739.00
2024-05-09T02:08:49.098Z,100745.94
2024-05-09T02:09:19.828Z,100740.66
2024-05-09T02:09:51.909Z,100740.66
2024-05-09T02:10:26.629Z,100744.16
2024-05-09T02:11:03.157Z,100737.13
2024-05-09T02:11:42.316Z,100738.78
2024-05-09T02:12:13.229Z,100748.56
2024-05-09T02:12:44.034Z,100748.47
2024-05-09T02:13:15.000Z,100737.97
2024-05-09T02:13:45.796Z,100739.75
2024-05-09T02:14:19.430Z,100740.59
2024-05-09T02:14:50.807Z,100750.28
2024-05-09T02:15:21.515Z,100745.72
2024-05-09T02:15:52.479Z,100737.00
2024-05-09T02:16:23.279Z,100733.41
2024-05-09T02:16:54.057Z,100738.78
2024-05-09T02:17:25.010Z,100741.44
2024-05-09T02:17:56.067Z,100750.28
2024-05-09T02:18:26.922Z,100734.50
2024-05-09T02:18:57.905Z,100738.03
2024-05-09T02:19:28.759Z,100745.72
2024-05-09T02:19:59.555Z,100739.50
2024-05-09T02:20:35.991Z,100739.50
2024-05-09T02:21:08.204Z,100736.88
2024-05-09T02:21:39.305Z,100741.19
2024-05-09T02:22:10.119Z,100744.78
2024-05-09T02:22:40.894Z,100745.72
2024-05-09T02:23:12.867Z,100743.94
2024-05-09T02:23:43.758Z,100736.88
2024-05-09T02:24:14.548Z,100739.41
2024-05-09T02:24:45.261Z,100739.50
2024-05-09T02:25:15.987Z,100738.56
2024-05-09T02:25:46.955Z,100741.19
2024-05-09T02:26:17.821Z,100735.94
2024-05-09T02:26:48.544Z,100732.34
2024-05-09T02:27:19.275Z,100732.34
2024-05-09T02:27:50.072Z,100738.56
2024-05-09T02:28:20.827Z,100742.03
2024-05-09T02:28:51.566Z,100735.09
2024-05-09T02:29:22.406Z,100733.31
2024-05-09T02:29:53.165Z,100739.41
2024-05-09T02:30:31.037Z,100733.31
2024-05-09T02:31:12.474Z,100731.63
2024-05-09T02:31:43.767Z,100741.19
2024-05-09T02:32:14.601Z,100737.84
2024-05-09T02:32:45.671Z,100742.03
2024-05-09T02:33:16.673Z,100737.59
2024-05-09T02:33:47.836Z,100732.34
2024-05-09T02:34:18.833Z,100739.41
2024-05-09T02:34:49.662Z,100735.94
2024-05-09T02:35:20.491Z,100741.09
2024-05-09T02:35:51.225Z,100730.56
2024-05-09T02:36:21.947Z,100748.03
2024-05-09T02:36:54.990Z,100741.09
2024-05-09T02:37:25.709Z,100739.28
2024-05-09T02:37:56.649Z,100735.81
2024-05-09T02:38:27.488Z,100739.28
2024-05-09T02:38:58.260Z,100734.88
2024-05-09T02:39:28.991Z,100740.13
2024-05-09T02:39:59.723Z,100738.44
2024-05-09T02:41:03.556Z,100740.34
2024-05-09T02:41:34.359Z,100739.50
2024-05-09T02:42:05.153Z,100738.91
2024-05-09T02:42:35.886Z,100743.41
2024-05-09T02:43:07.999Z,100743.66
2024-05-09T02:43:39.266Z,100738.50
2024-05-09T02:44:10.054Z,100737.66
2024-05-09T02:44:41.090Z,100747.34
2024-05-09T02:45:14.513Z,100742.28
2024-05-09T02:45:45.281Z,100746.69
2024-05-09T02:46:16.003Z,100740.72
2024-05-09T02:46:46.715Z,100739.13
2024-05-09T02:47:17.611Z,100740.00
2024-05-09T02:47:48.859Z,100739.22
2024-05-09T02:48:19.953Z,100736.84
2024-05-09T02:48:50.865Z,100734.50
2024-05-09T02:49:21.975Z,100728.22
2024-05-09T02:49:53.575Z,100733.38
2024-05-09T02:50:33.110Z,100736.09
2024-05-09T02:51:08.401Z,100727.38
2024-05-09T02:51:39.217Z,100733.66
2024-05-09T02:52:09.966Z,100740.59
2024-05-09T02:52:40.684Z,100737.25
2024-05-09T02:53:12.374Z,100738.94
2024-05-09T02:53:43.255Z,100733.78
2024-05-09T02:54:13.992Z,100737.47
2024-05-09T02:54:44.783Z,100738.50
2024-05-09T02:55:15.526Z,100739.47
2024-05-09T02:55:46.283Z,100742.72
2024-05-09T02:56:17.095Z,100734.94
2024-05-09T02:56:47.819Z,100739.16
2024-05-09T02:57:18.559Z,100743.78
2024-05-09T02:57:49.293Z,100742.94
2024-05-09T02:58:20.014Z,100748.06
2024-05-09T02:58:50.783Z,100745.56
2024-05-09T02:59:21.938Z,100743.16
2024-05-09T02:59:52.715Z,100744.28
2024-05-09T03:00:29.801Z,100750.41
2024-05-09T03:01:08.173Z,100744.19
2024-05-09T03:01:39.015Z,100745.91
2024-05-09T03:02:09.858Z,100750.31
2024-05-09T03:02:43.307Z,100746.81
2024-05-09T03:03:15.657Z,100749.38
2024-05-09T03:03:49.187Z,100745.91
2024-05-09T03:04:20.039Z,100746.72
2024-05-09T03:04:50.904Z,100750.41
2024-05-09T03:05:21.773Z,100749.44
2024-05-09T03:05:52.537Z,100744.94
2024-05-09T03:06:23.274Z,100748.41
2024-05-09T03:06:53.986Z,100748.59
2024-05-09T03:07:24.709Z,100749.56
2024-05-09T03:07:55.552Z,100749.88
2024-05-09T03:08:26.948Z,100751.16
2024-05-09T03:08:59.822Z,100753.66
2024-05-09T03:09:30.553Z,100749.25
2024-05-09T03:10:01.347Z,100745.03
2024-05-09T03:10:35.804Z,100746.94
2024-05-09T03:11:08.703Z,100746.84
2024-05-09T03:11:39.579Z,100752.19
2024-05-09T03:12:10.552Z,100757.25
2024-05-09T03:12:41.388Z,100745.88
2024-05-09T03:13:15.294Z,100750.41
2024-05-09T03:13:47.006Z,100751.03
2024-05-09T03:14:18.235Z,100757.25
2024-05-09T03:14:49.555Z,100757.47
2024-05-09T03:15:21.512Z,100754.00
2024-05-09T03:15:52.251Z,100753.13
2024-05-09T03:16:22.976Z,100753.88
2024-05-09T03:16:53.729Z,100754.06
2024-05-09T03:17:24.819Z,100754.41
2024-05-09T03:17:55.963Z,100757.88
2024-05-09T03:18:26.834Z,100750.28
2024-05-09T03:18:57.754Z,100749.34
2024-05-09T03:19:28.612Z,100752.81
2024-05-09T03:20:00.732Z,100749.25
2024-05-09T03:20:34.726Z,100749.34
2024-05-09T03:21:07.360Z,100753.75
2024-05-09T03:21:41.492Z,100747.56
2024-05-09T03:22:12.212Z,100749.34
2024-05-09T03:22:42.920Z,100748.50
2024-05-09T03:23:13.765Z,100750.41
2024-05-09T03:23:44.755Z,100748.00
2024-05-09T03:24:15.523Z,100747.16
2024-05-09T03:24:46.278Z,100746.22
2024-05-09T03:25:17.030Z,100750.28
2024-05-09T03:25:47.786Z,100751.25
2024-05-09T03:26:18.605Z,100742.50
2024-05-09T03:26:49.406Z,100741.47
2024-05-09T03:27:20.145Z,100739.06
2024-05-09T03:27:52.581Z,100749.97
2024-05-09T03:28:23.303Z,100743.88
2024-05-09T03:28:54.108Z,100745.56
2024-05-09T03:29:25.062Z,100748.84
2024-05-09T03:29:55.903Z,100743.47
2024-05-09T03:30:36.032Z,100742.50
2024-05-09T03:31:12.124Z,100741.47
2024-05-09T03:31:42.912Z,100745.88
2024-05-09T03:32:13.737Z,100744.09
2024-05-09T03:32:44.783Z,100743.34
2024-05-09T03:33:16.296Z,100743.25
2024-05-09T03:33:47.280Z,100743.13
2024-05-09T03:34:18.165Z,100745.69
2024-05-09T03:34:48.954Z,100746.53
2024-05-09T03:35:19.693Z,100749.34
2024-05-09T03:35:50.501Z,100748.50
2024-05-09T03:36:21.303Z,100750.28
2024-05-09T03:36:52.052Z,100745.88
2024-05-09T03:37:22.757Z,100747.56
2024-05-09T03:37:53.508Z,100744.84
2024-05-09T03:38:24.507Z,100743.91
2024-05-09T03:38:55.241Z,100743.78
2024-05-09T03:39:25.969Z,100741.16
2024-05-09T03:39:56.692Z,100755.13
2024-05-09T03:40:30.827Z,100749.03
2024-05-09T03:41:02.135Z,100742.00
2024-05-09T03:41:33.446Z,100747.13
2024-05-09T03:42:04.276Z,100746.31
2024-05-09T03:42:39.646Z,100748.81
2024-05-09T03:43:10.376Z,100745.47
2024-05-09T03:43:42.863Z,100740.22
2024-05-09T03:44:13.662Z,100748.81
2024-05-09T03:44:44.404Z,100740.94
2024-05-09T03:45:15.697Z,100744.41
2024-05-09T03:45:47.739Z,100745.25
2024-05-09T03:46:18.452Z,100740.94
2024-05-09T03:46:49.243Z,100747.97
2024-05-09T03:47:20.270Z,100746.94
2024-05-09T03:47:51.486Z,100747.78
2024-05-09T03:48:22.600Z,100747.69
2024-05-09T03:48:53.481Z,100751.16
2024-05-09T03:49:24.747Z,100742.31
2024-05-09T03:49:55.618Z,100745.78
2024-05-09T03:50:33.588Z,100751.03
2024-05-09T03:51:06.619Z,100746.63
2024-05-09T03:51:37.426Z,100753.66
2024-05-09T03:52:10.649Z,100747.47
2024-05-09T03:52:41.392Z,100743.78
2024-05-09T03:53:13.411Z,100749.88
2024-05-09T03:53:44.390Z,100749.88
2024-05-09T03:54:15.130Z,100748.22
2024-05-09T03:54:46.387Z,100753.34
2024-05-09T03:55:17.100Z,100752.41
2024-05-09T03:55:48.270Z,100748.81
2024-05-09T03:56:19.195Z,100746.19
2024-05-09T03:56:49.968Z,100754.94
2024-05-09T03:57:20.697Z,100753.13
2024-05-09T03:57:51.441Z,100754.94
2024-05-09T03:58:22.154Z,100751.47
2024-05-09T03:58:53.584Z,100752.28
2024-05-09T03:59:24.679Z,100757.56
2024-05-09T03:59:55.451Z,100750.50
2024-05-09T04:00:34.720Z,100759.97
2024-05-09T04:01:09.172Z,100755.56
2024-05-09T04:01:40.017Z,100761.66
2024-05-09T04:02:10.921Z,100757.25
2024-05-09T04:02:42.560Z,100760.50
2024-05-09T04:03:13.728Z,100761.44
2024-05-09T04:03:44.889Z,100763.34
2024-05-09T04:04:15.816Z,100756.41
2024-05-09T04:04:46.664Z,100756.19
2024-05-09T04:05:17.505Z,100757.88
2024-05-09T04:05:48.301Z,100757.75
2024-05-09T04:06:22.961Z,100764.81
2024-05-09T04:06:53.676Z,100756.81
2024-05-09T04:07:24.416Z,100762.16
2024-05-09T04:07:55.166Z,100759.53
2024-05-09T04:08:25.912Z,100764.81
2024-05-09T04:08:56.694Z,100761.22
2024-05-09T04:09:27.567Z,100766.47
2024-05-09T04:09:58.279Z,100764.81
2024-05-09T04:10:33.339Z,100761.97
2024-05-09T04:11:05.984Z,100760.19
2024-05-09T04:11:36.818Z,100765.44
2024-05-09T04:12:07.744Z,100764.38
2024-05-09T04:12:38.543Z,100765.34
2024-05-09T04:13:09.752Z,100757.44
2024-05-09T04:13:40.472Z,100760.19
2024-05-09T04:14:11.268Z,100763.66
2024-05-09T04:14:42.038Z,100760.19
2024-05-09T04:15:13.606Z,100755.88
2024-05-09T04:15:44.445Z,100764.28
2024-05-09T04:16:15.163Z,100760.69
2024-05-09T04:16:45.916Z,100766.81
2024-05-09T04:17:16.711Z,100768.50
2024-05-09T04:17:50.217Z,100764.19
2024-05-09T04:18:21.147Z,100761.44
2024-05-09T04:18:52.075Z,100767.31
2024-05-09T04:19:22.993Z,100769.00
2024-05-09T04:19:54.024Z,100762.91
2024-05-09T04:20:35.571Z,100765.41
2024-05-09T04:21:09.744Z,100757.63
2024-05-09T04:21:40.611Z,100769.00
2024-05-09T04:22:11.349Z,100769.94
2024-05-09T04:22:42.262Z,100768.16
2024-05-09T04:23:13.874Z,100765.53
2024-05-09T04:23:45.117Z,100770.66
2024-05-09T04:24:15.910Z,100770.59
2024-05-09T04:24:47.453Z,100775.75
2024-05-09T04:25:18.184Z,100770.38
2024-05-09T04:25:48.966Z,100769.41
2024-05-09T04:26:19.797Z,100770.13
2024-05-09T04:26:50.514Z,100770.25
2024-05-09T04:27:21.402Z,100778.97
2024-05-09T04:27:54.540Z,100773.00
2024-05-09T04:28:25.341Z,100774.66
2024-05-09T04:28:56.079Z,100774.56
2024-05-09T04:29:26.945Z,100777.19
2024-05-09T04:29:57.765Z,100770.25
2024-05-09T04:30:35.017Z,100774.66
2024-05-09T04:31:09.760Z,100772.16
2024-05-09T04:31:40.491Z,100775.50
2024-05-09T04:32:11.291Z,100771.00
2024-05-09T04:32:42.716Z,100777.94
2024-05-09T04:33:14.682Z,100775.31
2024-05-09T04:33:46.131Z,100772.56
2024-05-09T04:34:17.158Z,100783.81
2024-05-09T04:34:48.071Z,100775.94
2024-05-09T04:35:21.211Z,100778.44
2024-05-09T04:35:52.134Z,100776.66
2024-05-09T04:36:22.850Z,100774.88
2024-05-09T04:36:53.577Z,100773.19
2024-05-09T04:37:25.175Z,100777.41
2024-05-09T04:37:55.900Z,100776.66
2024-05-09T04:38:28.516Z,100782.03
2024-05-09T04:38:59.243Z,100776.88
2024-05-09T04:39:29.966Z,100775.09
2024-05-09T04:40:00.682Z,100782.25
2024-05-09T04:40:35.068Z,100777.00
2024-05-09T04:41:07.604Z,100786.44
2024-05-09T04:41:38.356Z,100780.34
2024-05-09T04:42:09.094Z,100775.94
2024-05-09T04:42:40.445Z,100782.03
2024-05-09T04:43:15.931Z,100776.78
2024-05-09T04:43:49.650Z,100782.88
2024-05-09T04:44:20.445Z,100786.25
2024-05-09T04:44:52.046Z,100779.28
2024-05-09T04:45:23.724Z,100782.97
2024-05-09T04:45:54.449Z,100785.91
2024-05-09T04:46:25.166Z,100783.09
2024-05-09T04:46:55.905Z,100785.72
2024-05-09T04:47:26.805Z,100784.88
2024-05-09T04:47:58.229Z,100780.34
2024-05-09T04:48:29.269Z,100784.03
2024-05-09T04:49:00.165Z,100786.03
2024-05-09T04:49:31.139Z,100784.16
2024-05-09T04:50:05.617Z,100783.22
2024-05-09T04:50:38.889Z,100786.44
2024-05-09T04:51:10.621Z,100784.78
2024-05-09T04:51:41.529Z,100787.28
2024-05-09T04:52:12.352Z,100786.34
2024-05-09T04:52:43.086Z,100781.84
2024-05-09T04:53:15.275Z,100781.84
2024-05-09T04:53:46.207Z,100783.81
2024-05-09T04:54:26.186Z,100786.44
2024-05-09T04:55:04.998Z,100790.44
2024-05-09T04:55:35.710Z,100793.81
2024-05-09T04:56:07.609Z,100789.72
2024-05-09T04:56:38.432Z,100789.50
2024-05-09T04:57:09.185Z,100787.81
2024-05-09T04:57:39.891Z,100792.00
2024-05-09T04:58:10.809Z,100791.06
2024-05-09T04:58:41.510Z,100791.81
2024-05-09T04:59:12.350Z,100791.91
2024-05-09T04:59:43.130Z,100794.44
2024-05-09T05:00:15.036Z,100783.94
2024-05-09T05:00:52.474Z,100796.00
2024-05-09T05:01:23.260Z,100799.38
2024-05-09T05:01:54.162Z,100803.06
2024-05-09T05:02:25.182Z,100794.44
2024-05-09T05:02:56.070Z,100796.13
2024-05-09T05:03:27.092Z,100798.63
2024-05-09T05:03:58.117Z,100802.84
2024-05-09T05:04:28.983Z,100802.00
2024-05-09T05:04:59.853Z,100802.84
2024-05-09T05:05:30.661Z,100795.69
2024-05-09T05:06:04.460Z,100795.78
2024-05-09T05:06:35.202Z,100800.09
2024-05-09T05:07:05.933Z,100807.97
2024-05-09T05:07:36.694Z,100796.72
2024-05-09T05:08:11.267Z,100798.41
2024-05-09T05:08:50.592Z,100794.00
2024-05-09T05:09:21.324Z,100801.56
2024-05-09T05:09:52.058Z,100797.38
2024-05-09T05:10:32.902Z,100803.47
2024-05-09T05:11:06.425Z,100799.91
2024-05-09T05:11:37.274Z,100799.91
2024-05-09T05:12:28.140Z,100800.97
2024-05-09T05:13:18.712Z,100803.47
2024-05-09T05:13:50.188Z,100792.94
2024-05-09T05:14:20.970Z,100800.53
2024-05-09T05:14:51.694Z,100794.34
2024-05-09T05:15:22.420Z,100798.44
2024-05-09T05:15:54.797Z,100796.50
2024-05-09T05:16:25.518Z,100795.25
2024-05-09T05:16:56.477Z,100805.06
2024-05-09T05:17:27.392Z,100804.09
2024-05-09T05:17:58.367Z,100807.69
2024-05-09T05:18:29.603Z,100808.63
2024-05-09T05:19:00.514Z,100804.53
2024-05-09T05:19:31.497Z,100806.09
2024-05-09T05:20:02.744Z,100812.13
2024-05-09T05:20:34.387Z,100804.09
2024-05-09T05:21:05.339Z,100812.72
2024-05-09T05:21:36.110Z,100811.16
2024-05-09T05:22:09.432Z,100813.78
2024-05-09T05:22:42.057Z,100812.94
2024-05-09T05:23:19.080Z,100816.31
2024-05-09T05:23:49.953Z,100811.28
2024-05-09T05:24:20.808Z,100811.88
2024-05-09T05:24:51.545Z,100815.59
2024-05-09T05:25:22.291Z,100811.34
2024-05-09T05:25:54.118Z,100811.34
2024-05-09T05:26:25.209Z,100806.22
2024-05-09T05:26:55.986Z,100809.78
2024-05-09T05:27:26.712Z,100820.13
2024-05-09T05:27:57.432Z,100811.34
2024-05-09T05:28:28.150Z,100821.16
2024-05-09T05:28:58.942Z,100806.31
2024-05-09T05:29:32.242Z,100811.69
2024-05-09T05:30:05.881Z,100820.31
2024-05-09T05:30:40.604Z,100818.75
2024-05-09T05:31:11.540Z,100808.84
2024-05-09T05:31:42.267Z,100816.53
2024-05-09T05:32:13.232Z,100823.25
2024-05-09T05:32:44.213Z,100820.63
2024-05-09T05:33:17.140Z,100817.88
2024-05-09T05:33:48.071Z,100821.25
2024-05-09T05:34:18.828Z,100819.22
2024-05-09T05:34:49.546Z,100817.44
2024-05-09T05:35:20.348Z,100822.59
2024-05-09T05:35:51.196Z,100819.75
2024-05-09T05:36:22.400Z,100817.84
2024-05-09T05:36:53.151Z,100816.28
2024-05-09T05:37:23.885Z,100818.16
2024-05-09T05:37:54.693Z,100816.28
2024-05-09T05:38:28.128Z,100819.53
2024-05-09T05:38:59.377Z,100820.25
2024-05-09T05:39:30.085Z,100834.28
2024-05-09T05:40:00.912Z,100827.09
2024-05-09T05:40:36.117Z,100821.00
2024-05-09T05:41:09.230Z,100829.63
2024-05-09T05:41:39.991Z,100833.94
2024-05-09T05:42:10.903Z,100826.75
2024-05-09T05:42:41.853Z,100825.84
2024-05-09T05:43:17.244Z,100824.88
2024-05-09T05:43:48.054Z,100830.13
2024-05-09T05:44:18.845Z,100829.06
2024-05-09T05:44:49.632Z,100831.47
2024-05-09T05:45:20.366Z,100832.22
2024-05-09T05:45:51.072Z,100835.81
2024-05-09T05:46:21.847Z,100828.00
2024-05-09T05:46:52.605Z,100839.28
2024-05-09T05:47:23.656Z,100830.44
2024-05-09T05:47:54.860Z,100832.94
2024-05-09T05:48:25.918Z,100830.31
2024-05-09T05:48:56.870Z,100834.63
2024-05-09T05:49:27.792Z,100824.81
2024-05-09T05:49:58.638Z,100828.28
2024-05-09T05:50:35.491Z,100829.75
2024-05-09T05:51:08.314Z,100828.81
2024-05-09T05:51:39.055Z,100833.13
2024-05-09T05:52:10.068Z,100833.88
2024-05-09T05:52:40.809Z,100834.69
2024-05-09T05:53:12.038Z,100834.59
2024-05-09T05:53:43.639Z,100839.72
2024-05-09T05:54:14.407Z,100833.63
2024-05-09T05:54:47.424Z,100837.94
2024-05-09T05:55:18.149Z,100833.50
2024-05-09T05:55:48.915Z,100830.03
2024-05-09T05:56:19.671Z,100835.31
2024-05-09T05:56:50.509Z,100830.88
2024-05-09T05:57:21.212Z,100837.81
2024-05-09T05:57:51.987Z,100838.66
2024-05-09T05:58:22.701Z,100832.66
2024-05-09T05:58:53.450Z,100837.69
2024-05-09T05:59:24.242Z,100836.88
2024-05-09T05:59:54.977Z,100836.66
2024-05-09T06:00:30.307Z,100836.66
2024-05-09T06:01:08.236Z,100839.06
2024-05-09T06:01:39.068Z,100830.66
2024-05-09T06:02:10.244Z,100834.16
2024-05-09T06:02:41.302Z,100839.28
2024-05-09T06:03:13.148Z,100846.13
2024-05-09T06:03:44.693Z,100838.44